Time;durP1;ratioP1;P1;durP2;ratioP2;P2;SDS_P1;SDS_P2;PMS_P1;PMS_P2;Temp;Humidity;BMP_temperature;BMP_pressure;BME280_temperature;BME280_humidity;BME280_pressure;Samples;Min_cycle;Max_cycle;Signal;HPM_P1;HPM_P2
2022/03/30 00:01:30;;;;;;;12.05;2.03;;;1.90;85.60;;;;;;5069883;28;20021;-79
2022/03/30 00:03:56;;;;;;;7.22;1.58;;;2.00;85.70;;;;;;5050994;28;20023;-79
2022/03/30 00:06:21;;;;;;;12.82;2.05;;;2.10;85.60;;;;;;5077164;28;20036;-79
2022/03/30 00:08:47;;;;;;;5.45;1.92;;;2.10;85.30;;;;;;5067642;28;20479;-79
2022/03/30 00:11:12;;;;;;;9.27;2.00;;;2.20;85.00;;;;;;5071184;28;20029;-79
2022/03/30 00:13:39;;;;;;;9.05;2.08;;;2.20;84.80;;;;;;5065663;28;20141;-79
2022/03/30 00:16:07;;;;;;;8.18;1.98;;;2.30;84.90;;;;;;5054281;28;20146;-79
2022/03/30 00:18:33;;;;;;;6.05;2.00;;;2.30;85.00;;;;;;5048853;28;20032;-79
2022/03/30 00:20:59;;;;;;;14.90;2.42;;;2.40;85.10;;;;;;5060677;28;20025;-79
2022/03/30 00:23:25;;;;;;;10.48;2.35;;;2.40;85.00;;;;;;5065192;28;20487;-79
2022/03/30 00:25:51;;;;;;;8.38;1.80;;;2.40;84.90;;;;;;5071964;28;20052;-79
2022/03/30 00:28:17;;;;;;;9.43;2.55;;;2.50;84.70;;;;;;5068643;28;20554;-79
2022/03/30 00:30:42;;;;;;;13.35;2.30;;;2.50;84.80;;;;;;5046140;28;20469;-79
2022/03/30 00:33:08;;;;;;;11.93;2.22;;;2.50;84.60;;;;;;5055195;28;20106;-79
2022/03/30 00:35:34;;;;;;;10.80;2.13;;;2.50;84.40;;;;;;5067040;28;20036;-79
2022/03/30 00:38:00;;;;;;;8.85;1.92;;;2.60;84.30;;;;;;5058124;28;20032;-79
2022/03/30 00:40:26;;;;;;;6.80;1.52;;;2.60;84.20;;;;;;5072792;28;20107;-79
2022/03/30 00:42:51;;;;;;;9.63;1.95;;;2.70;84.50;;;;;;5053632;28;20027;-79
2022/03/30 00:45:21;;;;;;;14.88;2.40;;;2.70;84.70;;;;;;5067493;28;20028;-79
2022/03/30 00:47:47;;;;;;;10.15;2.28;;;2.70;85.00;;;;;;5084373;28;20043;-79
2022/03/30 00:50:16;;;;;;;9.65;1.92;;;2.70;84.90;;;;;;5048898;28;20123;-79
2022/03/30 00:52:42;;;;;;;8.15;2.22;;;2.80;84.90;;;;;;5063276;28;20079;-79
2022/03/30 00:55:09;;;;;;;8.25;2.03;;;2.80;84.60;;;;;;5081237;28;20032;-79
2022/03/30 00:57:36;;;;;;;8.65;2.45;;;2.80;84.30;;;;;;5072595;28;20051;-79
2022/03/30 01:00:07;;;;;;;9.02;1.98;;;2.90;84.00;;;;;;5054365;28;20028;-79
2022/03/30 01:02:32;;;;;;;8.90;2.40;;;2.90;83.50;;;;;;5051481;28;20436;-79
2022/03/30 01:04:58;;;;;;;6.45;1.55;;;2.90;83.20;;;;;;5052246;28;20032;-79
2022/03/30 01:07:25;;;;;;;8.63;2.10;;;2.90;83.00;;;;;;5068232;28;20025;-79
2022/03/30 01:09:50;;;;;;;6.75;1.58;;;2.90;83.90;;;;;;5047568;28;20474;-79
2022/03/30 01:12:17;;;;;;;10.13;2.15;;;2.90;83.90;;;;;;5064480;28;20043;-79
2022/03/30 01:14:43;;;;;;;6.80;2.13;;;2.90;83.70;;;;;;5048446;28;20024;-79
2022/03/30 01:17:08;;;;;;;6.82;1.98;;;2.90;83.70;;;;;;5052900;28;20543;-80
2022/03/30 01:19:37;;;;;;;9.13;1.70;;;2.90;83.80;;;;;;5066442;28;20056;-79
2022/03/30 01:22:02;;;;;;;10.02;1.90;;;2.90;84.00;;;;;;5055616;28;20025;-79
2022/03/30 01:24:28;;;;;;;7.50;1.95;;;2.90;84.40;;;;;;5075274;28;20051;-79
2022/03/30 01:26:53;;;;;;;6.35;1.80;;;2.90;84.50;;;;;;5049844;28;20032;-79
2022/03/30 01:34:48;;;;;;;8.27;2.10;;;2.80;85.00;;;;;;5066323;28;20044;-79
2022/03/30 01:37:14;;;;;;;6.75;2.15;;;2.80;85.80;;;;;;5057075;28;20044;-79
2022/03/30 01:39:41;;;;;;;8.52;2.55;;;2.70;86.20;;;;;;5076033;28;20114;-80
2022/03/30 01:42:07;;;;;;;9.32;2.58;;;2.60;86.60;;;;;;5073358;28;20025;-79
2022/03/30 01:44:35;;;;;;;8.98;2.22;;;2.60;86.70;;;;;;5049665;28;20483;-79
2022/03/30 01:47:00;;;;;;;11.98;2.50;;;2.60;86.80;;;;;;5071122;28;20426;-79
2022/03/30 01:49:26;;;;;;;15.82;3.05;;;2.60;86.90;;;;;;5051396;28;20036;-79
2022/03/30 01:51:54;;;;;;;9.55;2.53;;;2.60;86.70;;;;;;5052763;28;20082;-79
2022/03/30 01:54:22;;;;;;;8.38;2.40;;;2.50;86.50;;;;;;5070591;28;20392;-79
2022/03/30 01:56:48;;;;;;;8.77;2.22;;;2.50;86.70;;;;;;5067231;28;20024;-79
2022/03/30 01:59:14;;;;;;;8.13;2.33;;;2.50;86.70;;;;;;5052224;28;20137;-79
2022/03/30 02:01:40;;;;;;;13.40;2.38;;;2.50;86.70;;;;;;5065609;28;20037;-79
2022/03/30 02:04:06;;;;;;;9.55;2.05;;;2.60;86.50;;;;;;5039364;28;20077;-79
2022/03/30 02:06:33;;;;;;;11.50;2.67;;;2.60;86.20;;;;;;5044936;28;20032;-79
2022/03/30 02:08:59;;;;;;;8.88;2.10;;;2.60;85.80;;;;;;5058947;28;20549;-79
2022/03/30 02:11:26;;;;;;;9.65;2.08;;;2.60;85.40;;;;;;5077423;28;20032;-79
2022/03/30 02:13:52;;;;;;;10.32;2.10;;;2.60;85.30;;;;;;5061586;28;20036;-79
2022/03/30 02:16:17;;;;;;;9.35;1.90;;;2.50;85.40;;;;;;5060525;28;20020;-79
2022/03/30 02:18:43;;;;;;;9.50;1.80;;;2.60;85.50;;;;;;5043906;28;20036;-79
2022/03/30 02:21:09;;;;;;;9.93;1.95;;;2.50;85.80;;;;;;5040858;28;20029;-79
2022/03/30 02:23:34;;;;;;;8.63;2.22;;;2.50;86.00;;;;;;5052890;28;20031;-79
2022/03/30 02:26:00;;;;;;;8.02;2.08;;;2.50;86.10;;;;;;5058572;28;20028;-79
2022/03/30 02:28:25;;;;;;;8.30;2.08;;;2.60;86.10;;;;;;5054731;28;20029;-79
2022/03/30 02:30:51;;;;;;;8.80;2.67;;;2.60;86.00;;;;;;5067549;28;20163;-79
2022/03/30 02:33:16;;;;;;;16.15;2.65;;;2.60;86.00;;;;;;5068000;28;20032;-79
2022/03/30 02:35:42;;;;;;;7.85;2.40;;;2.60;85.80;;;;;;5065885;28;20083;-79
2022/03/30 02:38:07;;;;;;;7.20;2.40;;;2.60;85.70;;;;;;5067957;28;20037;-79
2022/03/30 02:40:33;;;;;;;7.75;2.35;;;2.50;85.80;;;;;;5074858;28;20035;-80
2022/03/30 02:42:58;;;;;;;10.60;2.10;;;2.60;85.70;;;;;;5073454;28;20028;-80
2022/03/30 02:45:24;;;;;;;10.57;2.17;;;2.60;85.60;;;;;;5051565;28;20023;-80
2022/03/30 02:50:33;;;;;;;8.07;2.65;;;2.60;85.50;;;;;;5066215;28;20043;-79
2022/03/30 02:52:59;;;;;;;10.65;2.70;;;2.70;85.30;;;;;;5081940;28;20032;-79
2022/03/30 02:55:24;;;;;;;11.85;2.35;;;2.70;85.30;;;;;;5047856;28;20021;-80
2022/03/30 02:57:50;;;;;;;12.40;2.88;;;2.70;85.20;;;;;;5052933;28;20115;-79
2022/03/30 03:00:15;;;;;;;10.13;3.13;;;2.70;85.10;;;;;;5051312;28;20444;-79
2022/03/30 03:02:42;;;;;;;14.68;3.22;;;2.70;85.10;;;;;;5046416;28;20036;-79
2022/03/30 03:05:08;;;;;;;6.97;2.53;;;2.70;85.10;;;;;;5048938;28;20510;-79
2022/03/30 03:07:33;;;;;;;13.05;3.00;;;2.70;85.20;;;;;;5052452;28;20029;-79
2022/03/30 03:09:59;;;;;;;9.45;2.78;;;2.60;85.20;;;;;;5054291;28;20493;-79
2022/03/30 03:12:25;;;;;;;6.78;2.85;;;2.60;85.60;;;;;;5070767;28;20024;-79
2022/03/30 03:14:50;;;;;;;10.85;2.80;;;2.60;85.80;;;;;;5051254;28;20485;-79
2022/03/30 03:17:16;;;;;;;10.35;2.47;;;2.60;85.70;;;;;;5062729;28;20074;-79
2022/03/30 03:19:42;;;;;;;8.90;2.90;;;2.60;85.60;;;;;;5046936;28;20633;-79
2022/03/30 03:22:08;;;;;;;12.23;3.78;;;2.60;85.50;;;;;;5055556;28;20028;-79
2022/03/30 03:24:33;;;;;;;11.18;3.35;;;2.60;85.60;;;;;;5068207;28;20017;-79
2022/03/30 03:26:59;;;;;;;10.32;2.95;;;2.50;85.80;;;;;;5053958;28;20078;-79
2022/03/30 03:29:25;;;;;;;13.80;2.83;;;2.50;86.10;;;;;;5048559;28;20028;-79
2022/03/30 03:31:51;;;;;;;16.17;3.33;;;2.60;86.10;;;;;;5046444;28;20032;-79
2022/03/30 03:34:16;;;;;;;13.32;3.10;;;2.50;86.00;;;;;;5051793;28;20039;-79
2022/03/30 03:36:42;;;;;;;16.52;3.22;;;2.50;86.10;;;;;;5068028;28;20043;-79
2022/03/30 03:39:07;;;;;;;11.40;2.78;;;2.50;86.30;;;;;;5052062;28;20120;-79
2022/03/30 03:41:33;;;;;;;10.75;3.42;;;2.50;86.20;;;;;;5075253;28;20035;-79
2022/03/30 03:43:58;;;;;;;15.85;3.42;;;2.50;86.30;;;;;;5083869;28;20028;-79
2022/03/30 03:46:24;;;;;;;11.75;3.25;;;2.60;86.40;;;;;;5048620;28;20043;-79
2022/03/30 03:48:50;;;;;;;14.05;2.72;;;2.50;86.40;;;;;;5052820;28;20024;-79
2022/03/30 03:51:15;;;;;;;10.50;3.38;;;2.60;86.50;;;;;;5045517;28;20400;-79
2022/03/30 03:53:41;;;;;;;8.85;2.88;;;2.60;86.90;;;;;;5056685;28;20025;-79
2022/03/30 03:56:06;;;;;;;11.57;3.33;;;2.60;86.90;;;;;;5061797;28;20545;-79
2022/03/30 03:58:32;;;;;;;11.30;3.45;;;2.60;86.90;;;;;;5064724;28;20062;-79
2022/03/30 04:00:58;;;;;;;15.40;3.40;;;2.60;86.80;;;;;;5042708;28;20021;-79
2022/03/30 04:03:23;;;;;;;8.13;2.63;;;2.60;87.10;;;;;;5066901;28;20099;-79
2022/03/30 04:05:49;;;;;;;7.60;2.90;;;2.70;87.20;;;;;;5066844;28;20033;-79
2022/03/30 04:08:15;;;;;;;10.88;3.33;;;2.70;87.30;;;;;;5056137;28;20024;-80
2022/03/30 04:10:41;;;;;;;11.15;3.28;;;2.80;87.30;;;;;;5053170;28;20108;-81
2022/03/30 04:13:07;;;;;;;10.60;3.25;;;2.80;87.30;;;;;;5068623;28;20063;-80
2022/03/30 04:15:34;;;;;;;10.02;3.38;;;2.80;87.30;;;;;;5064698;28;20020;-80
2022/03/30 04:18:00;;;;;;;14.02;3.40;;;2.90;87.20;;;;;;5069461;28;20074;-80
2022/03/30 04:20:26;;;;;;;9.75;3.17;;;2.90;87.50;;;;;;5061404;28;20016;-80
2022/03/30 04:22:52;;;;;;;12.27;3.60;;;3.00;87.60;;;;;;5070529;28;20033;-80
2022/03/30 04:25:17;;;;;;;10.88;3.33;;;3.00;87.40;;;;;;5053416;28;20052;-80
2022/03/30 04:27:44;;;;;;;14.45;3.53;;;3.00;87.30;;;;;;5067157;28;20074;-79
2022/03/30 04:30:10;;;;;;;13.82;3.55;;;3.00;87.30;;;;;;5048838;28;20049;-79
2022/03/30 04:32:36;;;;;;;11.80;3.42;;;3.10;87.40;;;;;;5044284;28;20033;-79
2022/03/30 04:35:01;;;;;;;8.10;3.33;;;3.10;87.60;;;;;;5046852;28;20047;-79
2022/03/30 04:37:27;;;;;;;12.75;3.13;;;3.10;87.60;;;;;;5048295;28;20048;-79
2022/03/30 04:39:52;;;;;;;13.55;3.90;;;3.10;87.80;;;;;;5070165;28;20108;-79
2022/03/30 04:42:20;;;;;;;10.38;3.35;;;3.10;88.10;;;;;;5079473;28;20515;-79
2022/03/30 04:44:46;;;;;;;10.60;3.72;;;3.10;88.50;;;;;;5061210;28;20031;-79
2022/03/30 04:47:12;;;;;;;13.25;3.70;;;3.00;88.60;;;;;;5064658;28;20514;-77
2022/03/30 04:49:38;;;;;;;13.93;3.80;;;3.00;88.90;;;;;;5056004;28;20116;-77
2022/03/30 04:52:04;;;;;;;12.15;4.05;;;3.00;88.90;;;;;;5055400;28;20028;-77
2022/03/30 04:54:29;;;;;;;12.95;4.15;;;3.00;89.00;;;;;;5049658;28;20224;-78
2022/03/30 04:56:55;;;;;;;15.60;4.70;;;3.00;89.00;;;;;;5073680;28;20570;-77
2022/03/30 04:59:20;;;;;;;13.30;4.05;;;3.00;89.20;;;;;;5041317;28;20032;-77
2022/03/30 05:01:46;;;;;;;12.18;3.60;;;3.00;89.20;;;;;;5049005;28;20610;-77
2022/03/30 05:04:11;;;;;;;20.17;4.70;;;3.00;89.30;;;;;;5067046;28;20028;-77
2022/03/30 05:06:37;;;;;;;11.27;3.80;;;3.00;89.40;;;;;;5054239;28;20046;-78
2022/03/30 05:09:03;;;;;;;13.05;4.22;;;3.00;89.50;;;;;;5044992;28;20028;-78
2022/03/30 05:11:28;;;;;;;8.80;3.35;;;3.00;89.70;;;;;;5077970;28;20035;-78
2022/03/30 05:13:54;;;;;;;14.35;4.20;;;3.00;89.90;;;;;;5050868;28;20024;-78
2022/03/30 05:16:19;;;;;;;13.70;4.20;;;3.10;89.90;;;;;;5047817;28;20441;-80
2022/03/30 05:18:45;;;;;;;14.00;4.05;;;3.10;90.10;;;;;;5052241;28;20029;-78
2022/03/30 05:21:10;;;;;;;13.63;3.97;;;3.00;90.10;;;;;;5065268;28;20052;-78
2022/03/30 05:23:36;;;;;;;10.75;4.10;;;3.00;90.10;;;;;;5073966;28;20411;-78
2022/03/30 05:26:03;;;;;;;11.63;4.45;;;3.10;90.30;;;;;;5051755;28;20036;-78
2022/03/30 05:28:29;;;;;;;16.48;4.57;;;3.10;90.30;;;;;;5051050;28;20029;-79
2022/03/30 05:30:55;;;;;;;10.75;4.15;;;3.10;90.30;;;;;;5050341;28;20029;-77
2022/03/30 05:33:20;;;;;;;12.98;4.78;;;3.10;90.40;;;;;;5067368;28;20108;-79
2022/03/30 05:35:48;;;;;;;14.85;4.88;;;3.20;90.50;;;;;;5062938;28;20442;-78
2022/03/30 05:38:14;;;;;;;15.07;5.32;;;3.20;90.60;;;;;;5058455;28;20031;-78
2022/03/30 05:40:40;;;;;;;19.98;6.20;;;3.20;90.60;;;;;;5055406;28;20020;-77
2022/03/30 05:43:06;;;;;;;15.43;5.60;;;3.30;90.60;;;;;;5059618;28;20054;-78
2022/03/30 05:45:31;;;;;;;13.10;4.78;;;3.30;90.80;;;;;;5059837;28;20032;-78
2022/03/30 05:47:57;;;;;;;12.80;4.32;;;3.30;90.80;;;;;;5065311;28;20392;-78
2022/03/30 05:50:23;;;;;;;13.93;5.05;;;3.40;90.90;;;;;;5065775;28;20524;-78
2022/03/30 05:52:49;;;;;;;10.93;4.65;;;3.40;91.00;;;;;;5051299;28;20496;-78
2022/03/30 05:55:15;;;;;;;12.75;4.00;;;3.40;91.00;;;;;;5052692;28;20032;-78
2022/03/30 05:57:41;;;;;;;10.23;4.57;;;3.40;91.00;;;;;;5067991;28;20051;-78
2022/03/30 06:00:08;;;;;;;13.98;4.85;;;3.40;91.10;;;;;;5054675;28;20077;-78
2022/03/30 06:02:34;;;;;;;15.95;4.68;;;3.50;91.10;;;;;;5064505;28;20029;-78
2022/03/30 06:05:00;;;;;;;16.38;5.03;;;3.40;91.10;;;;;;5067276;28;20050;-78
2022/03/30 06:07:25;;;;;;;9.50;4.75;;;3.50;91.10;;;;;;5070071;28;20365;-78
2022/03/30 06:09:51;;;;;;;10.20;4.30;;;3.40;91.00;;;;;;5061301;28;20438;-78
2022/03/30 06:12:16;;;;;;;13.20;4.60;;;3.40;91.00;;;;;;5069940;28;20054;-78
2022/03/30 06:14:42;;;;;;;14.02;4.97;;;3.40;91.00;;;;;;5063924;28;20067;-78
2022/03/30 06:17:09;;;;;;;17.80;4.55;;;3.40;91.10;;;;;;5066649;28;20029;-78
2022/03/30 06:19:35;;;;;;;12.63;4.60;;;3.30;90.80;;;;;;5063009;28;20028;-78
2022/03/30 06:22:05;;;;;;;11.68;4.13;;;3.40;91.10;;;;;;5079290;28;20028;-78
2022/03/30 06:24:31;;;;;;;13.52;4.65;;;3.40;91.00;;;;;;5053268;28;20029;-78
2022/03/30 06:26:56;;;;;;;11.98;4.57;;;3.50;91.00;;;;;;5035079;28;20116;-78
2022/03/30 06:29:22;;;;;;;13.65;5.05;;;3.50;90.80;;;;;;5050560;28;20028;-78
2022/03/30 06:31:48;;;;;;;13.07;4.40;;;3.60;91.00;;;;;;5050799;28;20083;-79
2022/03/30 06:34:13;;;;;;;12.15;4.65;;;3.50;90.80;;;;;;5044759;28;20439;-80
2022/03/30 06:36:39;;;;;;;12.73;4.63;;;3.60;90.90;;;;;;5047010;28;20067;-78
2022/03/30 06:39:05;;;;;;;14.82;4.60;;;3.60;90.80;;;;;;5040069;28;20016;-79
2022/03/30 06:41:31;;;;;;;11.80;4.15;;;3.50;90.40;;;;;;5048390;28;20026;-78
2022/03/30 06:43:56;;;;;;;14.18;4.35;;;3.50;90.50;;;;;;5056161;28;20029;-78
2022/03/30 06:46:22;;;;;;;14.82;4.57;;;3.50;90.50;;;;;;5040282;28;20032;-78
2022/03/30 06:48:47;;;;;;;12.73;4.43;;;3.50;90.30;;;;;;5058791;28;20025;-78
2022/03/30 06:51:15;;;;;;;11.77;4.35;;;3.50;90.30;;;;;;5044887;28;20033;-78
2022/03/30 06:53:41;;;;;;;13.70;4.25;;;3.50;89.90;;;;;;5041580;28;20036;-78
2022/03/30 06:56:10;;;;;;;14.43;4.57;;;3.50;90.20;;;;;;5048708;28;20036;-77
2022/03/30 06:58:36;;;;;;;13.35;4.40;;;3.60;90.30;;;;;;5050369;28;20070;-77
2022/03/30 07:01:02;;;;;;;14.45;4.22;;;3.50;90.00;;;;;;5069461;28;20115;-78
2022/03/30 07:03:28;;;;;;;11.90;3.47;;;3.50;90.00;;;;;;5041856;28;20508;-78
2022/03/30 07:05:55;;;;;;;13.18;4.00;;;3.50;90.00;;;;;;5054147;28;20021;-78
2022/03/30 07:11:05;;;;;;;14.88;4.03;;;3.50;89.50;;;;;;5036231;28;20103;-78
2022/03/30 07:13:30;;;;;;;15.25;4.25;;;3.60;89.90;;;;;;5036571;28;20029;-78
2022/03/30 07:15:56;;;;;;;12.85;4.35;;;3.70;90.10;;;;;;5042456;28;20087;-78
2022/03/30 07:18:21;;;;;;;13.35;4.07;;;3.80;90.00;;;;;;5049946;28;20086;-78
2022/03/30 07:20:47;;;;;;;11.38;4.07;;;4.00;90.20;;;;;;5047109;28;20060;-78
2022/03/30 07:23:14;;;;;;;10.70;3.55;;;3.90;89.70;;;;;;5048221;28;20108;-78
2022/03/30 07:25:40;;;;;;;13.57;3.75;;;4.00;90.00;;;;;;5054548;28;20117;-78
2022/03/30 07:28:06;;;;;;;13.48;4.50;;;3.80;89.60;;;;;;5048996;28;20131;-78
2022/03/30 07:30:32;;;;;;;11.57;4.05;;;3.90;89.80;;;;;;5062692;28;20120;-78
2022/03/30 07:32:59;;;;;;;11.25;3.80;;;3.90;89.80;;;;;;5036682;28;20079;-78
2022/03/30 07:35:27;;;;;;;13.30;3.35;;;3.90;89.80;;;;;;5043607;28;20037;-78
2022/03/30 07:37:54;;;;;;;9.35;3.00;;;3.90;89.90;;;;;;5047070;28;20090;-78
2022/03/30 07:40:22;;;;;;;9.60;3.38;;;3.80;89.70;;;;;;5054799;28;20029;-78
2022/03/30 07:42:48;;;;;;;13.48;3.78;;;3.90;90.00;;;;;;5047638;28;20021;-78
2022/03/30 07:45:15;;;;;;;11.18;2.97;;;3.90;90.00;;;;;;5043466;28;20511;-78
2022/03/30 07:47:40;;;;;;;11.35;3.33;;;3.80;89.60;;;;;;5048658;28;20072;-78
2022/03/30 07:50:07;;;;;;;12.32;3.13;;;4.00;90.10;;;;;;5048584;28;20029;-78
2022/03/30 07:52:33;;;;;;;7.45;2.95;;;4.20;90.30;;;;;;5037659;28;20029;-78
2022/03/30 07:54:59;;;;;;;10.70;3.22;;;4.10;89.70;;;;;;5044042;28;20025;-78
2022/03/30 07:57:27;;;;;;;10.15;3.40;;;4.10;89.70;;;;;;5047890;28;20536;-78
2022/03/30 07:59:58;;;;;;;11.50;3.85;;;4.10;89.70;;;;;;5051312;28;20510;-78
2022/03/30 08:02:25;;;;;;;10.02;3.65;;;4.20;89.90;;;;;;5053937;28;20013;-78
2022/03/30 08:04:50;;;;;;;7.13;3.40;;;4.30;89.80;;;;;;5042425;28;20044;-78
2022/03/30 08:07:16;;;;;;;7.63;3.60;;;4.30;89.60;;;;;;5044597;28;20033;-78
2022/03/30 08:09:42;;;;;;;10.18;4.32;;;4.20;89.30;;;;;;5054633;28;20039;-78
2022/03/30 08:12:12;;;;;;;11.00;3.70;;;4.30;89.60;;;;;;5054818;28;20121;-78
2022/03/30 08:14:38;;;;;;;9.65;3.72;;;4.40;89.50;;;;;;5049628;28;20040;-78
2022/03/30 08:17:05;;;;;;;8.15;3.60;;;4.30;89.10;;;;;;5049670;28;20492;-78
2022/03/30 08:19:31;;;;;;;11.10;4.15;;;4.30;89.50;;;;;;5049520;28;20036;-78
2022/03/30 08:24:46;;;;;;;10.98;4.10;;;4.50;89.50;;;;;;5058116;28;20077;-78
2022/03/30 08:27:18;;;;;;;10.30;4.07;;;4.60;89.60;;;;;;5053143;28;21049;-78
2022/03/30 08:29:45;;;;;;;8.25;3.75;;;4.50;89.30;;;;;;5058282;28;20041;-78
2022/03/30 08:32:15;;;;;;;8.65;4.13;;;4.50;89.40;;;;;;5047193;28;20029;-78
2022/03/30 08:34:42;;;;;;;7.82;3.58;;;4.60;89.40;;;;;;5043983;28;20029;-78
2022/03/30 08:37:08;;;;;;;9.90;4.22;;;4.50;89.20;;;;;;5042854;28;20055;-78
2022/03/30 08:39:35;;;;;;;7.90;3.88;;;4.60;89.40;;;;;;5047168;28;20025;-78
2022/03/30 08:42:05;;;;;;;9.27;3.80;;;4.60;89.50;;;;;;5042582;28;20036;-78
2022/03/30 08:44:32;;;;;;;9.80;3.60;;;4.70;89.50;;;;;;5040401;28;20048;-78
2022/03/30 08:46:58;;;;;;;6.82;3.67;;;4.70;89.70;;;;;;5050298;28;20037;-78
2022/03/30 08:49:24;;;;;;;6.28;3.45;;;4.70;89.70;;;;;;5046475;28;20115;-78
2022/03/30 08:51:51;;;;;;;6.97;3.30;;;4.80;89.50;;;;;;5059436;28;20033;-78
2022/03/30 08:54:19;;;;;;;7.15;3.40;;;4.80;89.50;;;;;;5065503;28;20036;-78
2022/03/30 08:56:48;;;;;;;7.68;3.13;;;5.00;89.40;;;;;;5042243;28;20024;-78
2022/03/30 08:59:19;;;;;;;6.40;3.22;;;4.80;89.00;;;;;;5057356;28;20029;-78
2022/03/30 09:01:45;;;;;;;6.95;3.58;;;4.90;89.20;;;;;;5054745;28;20048;-78
2022/03/30 09:04:14;;;;;;;8.13;3.45;;;4.80;89.00;;;;;;5060037;28;20032;-78
2022/03/30 09:06:41;;;;;;;4.80;3.10;;;4.90;89.10;;;;;;5043978;28;20032;-78
2022/03/30 09:09:07;;;;;;;6.13;2.78;;;5.00;89.30;;;;;;5044624;28;20029;-78
2022/03/30 09:11:56;;;;;;;5.88;3.00;;;5.20;89.10;;;;;;5041900;28;20028;-78
2022/03/30 09:14:25;;;;;;;5.45;2.97;;;5.30;88.90;;;;;;5037421;28;20033;-78
2022/03/30 09:16:53;;;;;;;6.15;3.42;;;5.20;88.40;;;;;;5039650;28;20037;-78
2022/03/30 09:19:20;;;;;;;7.20;3.28;;;5.50;88.30;;;;;;5048707;28;20033;-78
2022/03/30 09:21:55;;;;;;;8.70;3.33;;;5.90;88.40;;;;;;5049392;28;20013;-78
2022/03/30 09:24:25;;;;;;;5.18;2.60;;;5.80;87.30;;;;;;5045913;28;20025;-78
2022/03/30 09:26:52;;;;;;;5.18;2.63;;;6.00;86.80;;;;;;5053185;28;20055;-78
2022/03/30 09:29:26;;;;;;;7.97;2.42;;;5.70;85.60;;;;;;5050658;28;20468;-78
2022/03/30 09:31:52;;;;;;;9.40;2.47;;;5.60;85.10;;;;;;5041239;28;20037;-79
2022/03/30 09:34:19;;;;;;;4.35;2.22;;;5.40;85.40;;;;;;5043676;28;20692;-78
2022/03/30 09:36:46;;;;;;;5.10;2.20;;;5.40;85.90;;;;;;5045209;28;20052;-78
2022/03/30 09:39:28;;;;;;;5.82;2.13;;;5.40;85.70;;;;;;5043897;28;20828;-78
2022/03/30 09:41:56;;;;;;;5.88;2.03;;;5.60;86.00;;;;;;5039102;28;20052;-78
2022/03/30 09:44:22;;;;;;;4.68;2.15;;;5.60;85.70;;;;;;5044441;28;20033;-78
2022/03/30 09:47:05;;;;;;;6.30;2.20;;;5.90;86.10;;;;;;5027467;28;20045;-78
2022/03/30 09:49:43;;;;;;;6.97;2.35;;;5.70;85.30;;;;;;5031080;28;20034;-78
2022/03/30 09:52:19;;;;;;;5.10;2.03;;;5.60;85.00;;;;;;5042668;28;20024;-78
2022/03/30 09:54:53;;;;;;;8.10;2.25;;;5.60;85.30;;;;;;5045129;28;20680;-78
2022/03/30 09:57:39;;;;;;;4.97;1.75;;;5.70;85.50;;;;;;5038464;28;20039;-77
2022/03/30 10:00:04;;;;;;;4.63;1.98;;;5.80;85.20;;;;;;5037087;28;20029;-77
2022/03/30 10:02:38;;;;;;;6.57;1.85;;;5.90;85.00;;;;;;5044435;28;20086;-77
2022/03/30 10:05:05;;;;;;;7.15;2.38;;;5.80;84.30;;;;;;5039043;28;20029;-78
2022/03/30 10:07:32;;;;;;;4.03;2.03;;;5.80;84.90;;;;;;5034369;28;20396;-78
2022/03/30 10:09:58;;;;;;;5.75;1.77;;;6.10;85.40;;;;;;5041566;28;20039;-78
2022/03/30 10:12:26;;;;;;;5.95;2.10;;;6.10;84.20;;;;;;5050673;28;20056;-78
2022/03/30 10:14:53;;;;;;;7.78;2.25;;;6.20;83.50;;;;;;5050254;28;20028;-78
2022/03/30 10:17:19;;;;;;;4.03;1.83;;;6.40;83.80;;;;;;5035779;28;20021;-78
2022/03/30 10:19:46;;;;;;;5.40;1.98;;;6.40;83.60;;;;;;5038949;28;20029;-78
2022/03/30 10:22:47;;;;;;;6.03;1.90;;;6.30;83.50;;;;;;5045488;28;20025;-77
2022/03/30 10:26:01;;;;;;;4.87;2.13;;;6.60;84.30;;;;;;5035111;28;20073;-77
2022/03/30 10:28:55;;;;;;;6.70;1.90;;;6.80;83.20;;;;;;5035966;28;20037;-78
2022/03/30 10:31:22;;;;;;;6.07;1.75;;;6.30;82.30;;;;;;5047840;28;20027;-79
2022/03/30 10:33:48;;;;;;;3.95;1.77;;;6.40;82.60;;;;;;5046861;28;20043;-78
2022/03/30 10:36:24;;;;;;;5.03;2.13;;;6.60;82.90;;;;;;5031542;28;20124;-78
2022/03/30 10:39:24;;;;;;;5.63;2.10;;;7.00;82.80;;;;;;5052689;28;20032;-78
2022/03/30 10:42:09;;;;;;;4.18;2.10;;;7.30;82.10;;;;;;5049102;28;20025;-78
2022/03/30 10:44:47;;;;;;;4.55;2.00;;;7.60;81.70;;;;;;5040315;28;20031;-78
2022/03/30 10:47:16;;;;;;;3.67;1.67;;;7.80;80.40;;;;;;5052482;28;20041;-78
2022/03/30 10:49:46;;;;;;;6.80;2.08;;;7.90;79.90;;;;;;5036721;28;20464;-78
2022/03/30 10:52:39;;;;;;;5.22;1.70;;;8.10;78.80;;;;;;5050527;28;20392;-79
2022/03/30 10:55:13;;;;;;;4.45;1.85;;;8.40;77.90;;;;;;5038362;28;20033;-78
2022/03/30 10:58:02;;;;;;;3.47;1.92;;;8.10;77.30;;;;;;5047525;28;20039;-78
2022/03/30 11:00:39;;;;;;;3.97;1.80;;;7.60;77.00;;;;;;5048963;28;20487;-78
2022/03/30 11:03:13;;;;;;;4.68;2.17;;;7.80;78.30;;;;;;5049105;28;20112;-78
2022/03/30 11:05:43;;;;;;;5.82;1.80;;;8.00;78.30;;;;;;5047566;28;20056;-78
2022/03/30 11:08:31;;;;;;;3.78;1.83;;;8.00;77.20;;;;;;5048595;28;20036;-78
2022/03/30 11:11:00;;;;;;;5.47;1.90;;;8.30;77.70;;;;;;5060268;28;20039;-78
2022/03/30 11:13:26;;;;;;;5.35;1.85;;;8.40;77.00;;;;;;5038226;28;20033;-78
2022/03/30 11:16:01;;;;;;;5.25;2.08;;;8.30;74.60;;;;;;5051869;28;20041;-78
2022/03/30 11:18:27;;;;;;;6.78;2.17;;;8.20;74.80;;;;;;5045002;28;20099;-78
2022/03/30 11:21:08;;;;;;;5.38;1.77;;;8.10;74.20;;;;;;5047468;28;20036;-78
2022/03/30 11:23:55;;;;;;;6.32;2.03;;;8.40;74.80;;;;;;5066238;28;20029;-78
2022/03/30 11:26:22;;;;;;;6.15;2.30;;;7.90;74.00;;;;;;5052564;28;20033;-78
2022/03/30 11:28:48;;;;;;;3.80;1.90;;;8.10;75.30;;;;;;5047739;28;20308;-79
2022/03/30 11:31:23;;;;;;;5.30;2.00;;;7.70;75.50;;;;;;5045486;28;20025;-78
2022/03/30 11:34:27;;;;;;;5.65;2.05;;;7.70;76.80;;;;;;5043744;28;20032;-78
2022/03/30 11:36:53;;;;;;;4.88;2.00;;;7.50;76.30;;;;;;5050974;28;20052;-78
2022/03/30 11:39:29;;;;;;;4.63;2.28;;;7.40;75.40;;;;;;5049758;28;20028;-78
2022/03/30 11:41:57;;;;;;;4.53;2.00;;;7.30;76.80;;;;;;5044741;28;20043;-78
2022/03/30 11:47:13;;;;;;;5.30;2.50;;;7.40;78.00;;;;;;5043715;28;20064;-78
2022/03/30 11:49:51;;;;;;;;;;;7.50;78.10;;;;;;5055578;28;20077;-78
2022/03/30 11:52:18;;;;;;;3.45;2.05;;;7.50;77.70;;;;;;5051681;28;19916;-78
2022/03/30 11:54:51;;;;;;;4.80;2.17;;;7.10;75.60;;;;;;5050063;28;20040;-78
2022/03/30 11:57:18;;;;;;;4.75;2.42;;;6.80;76.40;;;;;;5057082;28;20029;-78
2022/03/30 12:00:01;;;;;;;4.72;2.00;;;7.00;78.30;;;;;;5045184;28;20030;-78
2022/03/30 12:02:29;;;;;;;6.45;2.65;;;7.00;77.50;;;;;;5054372;28;20596;-78
2022/03/30 12:04:57;;;;;;;4.40;2.15;;;7.10;77.70;;;;;;5041986;28;20032;-78
2022/03/30 12:07:24;;;;;;;5.80;2.60;;;7.10;78.20;;;;;;5047693;28;20048;-78
2022/03/30 12:09:55;;;;;;;7.13;2.63;;;7.10;78.70;;;;;;5050936;28;20488;-78
2022/03/30 12:12:35;;;;;;;6.22;2.67;;;7.10;79.30;;;;;;5054736;28;20458;-78
2022/03/30 12:15:09;;;;;;;6.20;2.28;;;7.30;79.40;;;;;;5048725;28;20499;-78
2022/03/30 12:17:35;;;;;;;2.88;2.13;;;7.40;78.60;;;;;;5040490;28;20059;-79
2022/03/30 12:20:05;;;;;;;4.78;2.80;;;7.40;77.80;;;;;;5045640;28;20408;-78
2022/03/30 12:22:31;;;;;;;4.75;2.42;;;7.50;77.80;;;;;;5048471;28;20049;-78
2022/03/30 12:24:57;;;;;;;6.65;2.40;;;7.60;77.20;;;;;;5050615;28;20017;-78
2022/03/30 12:27:24;;;;;;;4.35;2.55;;;7.60;77.50;;;;;;5054098;28;20033;-78
2022/03/30 12:29:54;;;;;;;5.15;2.22;;;7.40;76.30;;;;;;5055377;28;20028;-78
2022/03/30 12:32:25;;;;;;;5.22;2.03;;;7.40;77.50;;;;;;5047922;28;20024;-77
2022/03/30 12:35:12;;;;;;;4.07;2.28;;;7.10;78.70;;;;;;5046060;28;20032;-77
2022/03/30 12:37:38;;;;;;;4.22;2.08;;;7.30;78.30;;;;;;5054692;28;20076;-77
2022/03/30 12:40:13;;;;;;;4.65;2.30;;;7.40;77.20;;;;;;5042529;28;20085;-77
2022/03/30 12:42:40;;;;;;;4.65;2.20;;;7.40;77.70;;;;;;5048370;28;20431;-77
2022/03/30 12:45:14;;;;;;;4.30;1.98;;;7.30;77.50;;;;;;5042470;28;20021;-78
2022/03/30 12:47:51;;;;;;;4.53;2.15;;;7.40;76.90;;;;;;5041455;28;20569;-78
2022/03/30 12:50:23;;;;;;;5.25;2.17;;;7.40;77.00;;;;;;5048758;28;20036;-78
2022/03/30 12:52:51;;;;;;;4.10;1.95;;;7.50;77.00;;;;;;5056544;28;20494;-78
2022/03/30 12:55:18;;;;;;;4.28;1.85;;;7.50;76.40;;;;;;5046389;28;20021;-77
2022/03/30 12:57:51;;;;;;;5.43;2.28;;;7.60;76.10;;;;;;5049046;28;20503;-77
2022/03/30 13:00:19;;;;;;;4.25;1.80;;;7.50;76.00;;;;;;5050950;28;20464;-77
2022/03/30 13:02:45;;;;;;;3.10;1.75;;;7.50;76.60;;;;;;5058315;28;20067;-77
2022/03/30 13:05:23;;;;;;;3.45;1.67;;;7.40;76.10;;;;;;5063844;28;20025;-77
2022/03/30 13:07:51;;;;;;;4.57;1.70;;;7.60;76.80;;;;;;5050768;28;20552;-77
2022/03/30 13:10:18;;;;;;;5.57;1.70;;;7.60;75.80;;;;;;5043659;28;20032;-77
2022/03/30 13:12:54;;;;;;;3.58;1.55;;;7.40;74.60;;;;;;5054089;28;20392;-77
2022/03/30 13:15:21;;;;;;;4.13;1.33;;;7.40;75.90;;;;;;5058181;28;20036;-78